createdAt,value
2018-08-07T00:00:53.606Z,96.50
2018-08-07T00:03:21.694Z,97.00
2018-08-07T00:05:49.997Z,97.30
2018-08-07T00:08:18.050Z,97.50
2018-08-07T00:10:45.459Z,98.10
2018-08-07T00:13:13.502Z,98.30
2018-08-07T00:15:41.581Z,98.60
2018-08-07T00:18:09.748Z,99.10
2018-08-07T00:20:37.817Z,99.40
2018-08-07T00:23:05.893Z,99.60
2018-08-07T00:25:33.983Z,99.90
2018-08-07T00:28:02.069Z,99.90
2018-08-07T00:30:30.150Z,99.90
2018-08-07T00:32:58.231Z,99.90
2018-08-07T00:35:26.277Z,99.90
2018-08-07T00:37:54.441Z,99.90
2018-08-07T00:42:50.301Z,99.90
2018-08-07T00:45:19.569Z,99.90
2018-08-07T00:47:47.877Z,99.90
2018-08-07T00:50:17.484Z,99.90
2018-08-07T00:52:46.777Z,99.90
2018-08-07T00:55:15.538Z,99.90
2018-08-07T00:57:43.791Z,99.90
2018-08-07T01:00:13.039Z,99.90
2018-08-07T01:02:41.109Z,99.90
2018-08-07T01:05:11.146Z,99.90
2018-08-07T01:07:39.263Z,99.90
2018-08-07T01:10:09.540Z,99.90
2018-08-07T01:12:37.888Z,99.90
2018-08-07T01:17:35.909Z,99.90
2018-08-07T01:20:06.875Z,99.90
2018-08-07T01:25:02.885Z,99.90
2018-08-07T01:27:30.317Z,99.90
2018-08-07T01:32:24.902Z,99.90
2018-08-07T01:34:52.295Z,99.90
2018-08-07T01:37:19.722Z,99.90
2018-08-07T01:39:47.115Z,99.90
2018-08-07T01:42:14.513Z,99.90
2018-08-07T01:44:41.916Z,99.90
2018-08-07T01:47:09.361Z,99.90
2018-08-07T01:49:36.769Z,99.90
2018-08-07T01:52:04.260Z,99.90
2018-08-07T01:54:31.665Z,99.90
2018-08-07T01:59:26.897Z,99.90
2018-08-07T02:01:54.354Z,99.90
2018-08-07T02:04:21.736Z,99.90
2018-08-07T02:06:49.145Z,99.90
2018-08-07T02:09:16.572Z,99.90
2018-08-07T02:11:44.201Z,99.90
2018-08-07T02:14:11.641Z,99.90
2018-08-07T02:16:40.623Z,99.90
2018-08-07T02:19:08.042Z,99.90
2018-08-07T02:24:02.716Z,99.90
2018-08-07T02:28:57.298Z,99.90
2018-08-07T02:31:24.712Z,99.90
2018-08-07T02:36:20.006Z,99.90
2018-08-07T02:38:48.069Z,99.90
2018-08-07T02:43:42.702Z,99.90
2018-08-07T02:46:10.117Z,99.90
2018-08-07T02:48:37.557Z,99.90
2018-08-07T02:51:04.979Z,99.90
2018-08-07T02:55:59.584Z,99.90
2018-08-07T02:58:27.651Z,99.90
2018-08-07T03:00:55.054Z,99.90
2018-08-07T03:08:16.889Z,99.90
2018-08-07T03:10:44.314Z,99.90
2018-08-07T03:13:11.757Z,99.90
2018-08-07T03:15:39.850Z,99.90
2018-08-07T03:18:07.266Z,99.90
2018-08-07T03:20:34.694Z,99.90
2018-08-07T03:25:29.969Z,99.90
2018-08-07T03:27:58.078Z,99.90
2018-08-07T03:30:26.713Z,99.90
2018-08-07T03:32:54.186Z,99.90
2018-08-07T03:35:21.581Z,99.90
2018-08-07T03:37:49.013Z,99.90
2018-08-07T03:40:17.530Z,99.90
2018-08-07T03:42:45.149Z,99.90
2018-08-07T03:47:43.536Z,99.90
2018-08-07T03:50:11.796Z,99.90
2018-08-07T03:52:39.749Z,99.90
2018-08-07T03:55:09.242Z,99.90
2018-08-07T03:57:37.541Z,99.90
2018-08-07T04:00:06.950Z,99.90
2018-08-07T04:02:34.353Z,99.90
2018-08-07T04:05:01.825Z,99.90
2018-08-07T04:07:29.215Z,99.90
2018-08-07T04:09:56.870Z,99.90
2018-08-07T04:12:24.357Z,99.90
2018-08-07T04:14:51.774Z,99.90
2018-08-07T04:17:19.183Z,99.90
2018-08-07T04:19:47.262Z,99.90
2018-08-07T04:22:14.689Z,99.90
2018-08-07T04:24:42.072Z,99.90
2018-08-07T04:27:09.493Z,99.90
2018-08-07T04:29:36.892Z,99.90
2018-08-07T04:34:32.873Z,99.90
2018-08-07T04:37:00.226Z,99.90
2018-08-07T04:39:27.656Z,99.90
2018-08-07T04:41:55.746Z,99.90
2018-08-07T04:44:23.809Z,99.90
2018-08-07T04:46:51.889Z,99.90
2018-08-07T04:49:19.282Z,99.90
2018-08-07T04:51:46.707Z,99.90
2018-08-07T04:54:14.094Z,99.90
2018-08-07T04:56:41.545Z,99.90
2018-08-07T04:59:09.666Z,99.90
2018-08-07T05:01:37.075Z,99.90
2018-08-07T05:04:05.151Z,99.90
2018-08-07T05:06:32.559Z,99.90
2018-08-07T05:08:59.952Z,99.90
2018-08-07T05:13:55.320Z,99.90
2018-08-07T05:16:22.721Z,99.90
2018-08-07T05:18:50.806Z,99.90
2018-08-07T05:21:18.201Z,99.90
2018-08-07T05:23:46.276Z,99.90
2018-08-07T05:26:13.657Z,99.90
2018-08-07T05:28:41.144Z,99.90
2018-08-07T05:31:09.169Z,99.90
2018-08-07T05:36:03.745Z,99.90
2018-08-07T05:40:59.950Z,99.90
2018-08-07T05:43:27.990Z,99.90
2018-08-07T05:45:55.393Z,99.90
2018-08-07T05:48:22.829Z,99.90
2018-08-07T05:50:50.631Z,99.90
2018-08-07T05:53:18.311Z,99.90
2018-08-07T05:55:45.701Z,99.90
2018-08-07T05:58:13.101Z,99.90
2018-08-07T06:00:41.154Z,99.90
2018-08-07T06:03:08.572Z,99.90
2018-08-07T06:05:35.951Z,99.90
2018-08-07T06:08:03.337Z,99.90
2018-08-07T06:10:30.733Z,99.90
2018-08-07T06:12:58.121Z,99.90
2018-08-07T06:15:25.501Z,99.90
2018-08-07T06:17:52.899Z,99.90
2018-08-07T06:20:20.280Z,99.90
2018-08-07T06:22:47.674Z,99.90
2018-08-07T06:25:15.061Z,99.90
2018-08-07T06:27:42.437Z,99.90
2018-08-07T06:30:13.821Z,99.90
2018-08-07T06:32:41.209Z,99.90
2018-08-07T06:35:08.808Z,99.90
2018-08-07T06:37:36.242Z,99.90
2018-08-07T06:42:31.062Z,99.90
2018-08-07T06:44:58.454Z,99.90
2018-08-07T06:47:25.845Z,99.90
2018-08-07T06:49:53.243Z,99.90
2018-08-07T06:52:20.608Z,99.90
2018-08-07T06:54:47.998Z,99.90
2018-08-07T06:57:15.393Z,99.90
2018-08-07T06:59:42.785Z,99.90
2018-08-07T07:02:10.177Z,99.90
2018-08-07T07:04:37.557Z,99.90
2018-08-07T07:07:05.114Z,99.90
2018-08-07T07:09:33.227Z,99.90
2018-08-07T07:12:00.549Z,99.90
2018-08-07T07:14:27.932Z,99.90
2018-08-07T07:16:55.317Z,99.90
2018-08-07T07:21:49.893Z,99.90
2018-08-07T07:26:44.526Z,99.90
2018-08-07T07:29:11.865Z,99.90
2018-08-07T07:31:39.250Z,99.90
2018-08-07T07:34:06.642Z,99.90
2018-08-07T07:36:34.024Z,99.90
2018-08-07T07:41:28.596Z,99.90
2018-08-07T07:43:55.972Z,99.90
2018-08-07T07:46:23.369Z,99.90
2018-08-07T07:48:50.769Z,99.90
2018-08-07T07:51:18.160Z,99.90
2018-08-07T07:56:12.729Z,99.90
2018-08-07T07:58:40.128Z,99.90
2018-08-07T08:01:07.876Z,99.90
2018-08-07T08:03:35.253Z,99.90
2018-08-07T08:06:02.686Z,99.90
2018-08-07T08:08:30.036Z,99.90
2018-08-07T08:10:57.437Z,99.90
2018-08-07T08:13:24.803Z,99.90
2018-08-07T08:15:52.205Z,99.90
2018-08-07T08:18:19.581Z,99.90
2018-08-07T08:20:46.973Z,99.90
2018-08-07T08:23:14.353Z,99.90
2018-08-07T08:25:41.758Z,99.90
2018-08-07T08:28:09.152Z,99.90
2018-08-07T08:30:36.553Z,99.90
2018-08-07T08:33:03.945Z,99.90
2018-08-07T08:35:31.515Z,99.90
2018-08-07T08:37:58.740Z,99.90
2018-08-07T08:42:53.348Z,99.30
2018-08-07T08:45:21.786Z,99.90
2018-08-07T08:47:49.933Z,99.90
2018-08-07T08:50:19.231Z,99.90
2018-08-07T08:55:14.456Z,99.90
2018-08-07T08:57:42.487Z,99.90
2018-08-07T09:00:13.526Z,99.90
2018-08-07T09:02:42.642Z,99.90
2018-08-07T09:05:11.105Z,99.90
2018-08-07T09:07:39.682Z,99.90
2018-08-07T09:10:10.535Z,99.90
2018-08-07T09:15:06.398Z,99.90
2018-08-07T09:17:34.443Z,99.90
2018-08-07T09:20:02.500Z,99.70
2018-08-07T09:22:30.555Z,99.70
2018-08-07T09:24:58.285Z,99.00
2018-08-07T09:27:26.393Z,99.90
2018-08-07T09:29:54.382Z,98.40
2018-08-07T09:32:21.813Z,98.30
2018-08-07T09:37:16.366Z,97.30
2018-08-07T09:39:44.499Z,96.60
2018-08-07T09:42:12.462Z,97.30
2018-08-07T09:44:40.526Z,97.70
2018-08-07T09:47:08.570Z,98.10
2018-08-07T09:49:36.622Z,96.30
2018-08-07T09:52:04.674Z,95.30
2018-08-07T09:54:32.726Z,97.40
2018-08-07T09:57:00.774Z,96.60
2018-08-07T09:59:28.822Z,95.30
2018-08-07T10:02:02.217Z,96.50
2018-08-07T10:04:30.253Z,95.10
2018-08-07T10:06:57.649Z,95.40
2018-08-07T10:09:25.042Z,94.90
2018-08-07T10:11:52.440Z,95.20
2018-08-07T10:16:47.673Z,94.00
2018-08-07T10:19:15.723Z,93.90
2018-08-07T10:21:43.105Z,92.40
2018-08-07T10:24:11.145Z,90.30
2018-08-07T10:26:39.197Z,90.30
2018-08-07T10:29:06.785Z,92.20
2018-08-07T10:31:34.137Z,91.00
2018-08-07T10:34:01.535Z,84.70
2018-08-07T10:36:28.956Z,87.30
2018-08-07T10:38:56.457Z,84.20
2018-08-07T10:43:51.159Z,83.00
2018-08-07T10:48:45.589Z,81.10
2018-08-07T10:51:12.987Z,79.70
2018-08-07T10:53:41.033Z,77.20
2018-08-07T10:56:08.408Z,76.10
2018-08-07T10:58:35.810Z,79.20
2018-08-07T11:01:03.193Z,79.30
2018-08-07T11:03:30.576Z,81.80
2018-08-07T11:08:25.169Z,83.00
2018-08-07T11:10:52.541Z,85.70
2018-08-07T11:13:19.923Z,89.20
2018-08-07T11:15:47.325Z,89.60
2018-08-07T11:18:14.705Z,90.10
2018-08-07T11:23:09.934Z,88.10
2018-08-07T11:25:37.329Z,89.20
2018-08-07T11:30:33.217Z,90.80
2018-08-07T11:33:02.089Z,88.30
2018-08-07T11:35:30.160Z,88.90
2018-08-07T11:37:59.430Z,89.30
2018-08-07T11:40:27.495Z,90.00
2018-08-07T11:42:56.362Z,90.50
2018-08-07T11:45:26.162Z,90.90
2018-08-07T11:47:54.387Z,90.50
2018-08-07T11:50:23.937Z,90.50
2018-08-07T11:55:20.327Z,90.90
2018-08-07T11:57:49.658Z,90.90
2018-08-07T12:00:22.697Z,91.20
2018-08-07T12:02:50.094Z,91.60
2018-08-07T12:05:17.605Z,90.70
2018-08-07T12:10:13.301Z,89.90
2018-08-07T12:12:42.143Z,89.20
2018-08-07T12:15:14.536Z,84.10
2018-08-07T12:17:41.933Z,82.00
2018-08-07T12:20:09.341Z,80.10
2018-08-07T12:22:36.865Z,80.30
2018-08-07T12:25:04.667Z,79.30
2018-08-07T12:27:32.183Z,78.50
2018-08-07T12:29:59.701Z,79.90
2018-08-07T12:34:54.272Z,78.50
2018-08-07T12:39:48.832Z,79.00
2018-08-07T12:42:16.217Z,80.00
2018-08-07T12:44:44.266Z,82.50
2018-08-07T12:47:11.665Z,81.20
2018-08-07T12:49:39.298Z,82.30
2018-08-07T12:52:06.916Z,84.00
2018-08-07T12:54:34.309Z,85.20
2018-08-07T12:57:01.693Z,87.50
2018-08-07T12:59:29.085Z,86.60
2018-08-07T13:01:56.490Z,87.80
2018-08-07T13:04:23.890Z,87.00
2018-08-07T13:06:51.402Z,87.00
2018-08-07T13:09:18.678Z,88.40
2018-08-07T13:11:46.053Z,89.20
2018-08-07T13:14:47.427Z,87.20
2018-08-07T13:17:15.004Z,87.50
2018-08-07T13:19:42.377Z,86.00
2018-08-07T13:22:10.069Z,89.60
2018-08-07T13:24:37.504Z,86.00
2018-08-07T13:27:04.881Z,87.40
2018-08-07T13:29:32.264Z,85.00
2018-08-07T13:31:59.670Z,86.50
2018-08-07T13:34:27.070Z,88.70
2018-08-07T13:36:54.470Z,89.40
2018-08-07T13:39:21.837Z,89.70
2018-08-07T13:41:49.280Z,90.00
2018-08-07T13:44:16.653Z,87.90
2018-08-07T13:46:44.037Z,87.20
2018-08-07T13:49:11.435Z,88.00
2018-08-07T13:51:38.821Z,89.00
2018-08-07T13:54:06.240Z,88.90
2018-08-07T13:56:33.641Z,87.30
2018-08-07T13:59:01.029Z,88.80
2018-08-07T14:01:28.421Z,87.40
2018-08-07T14:03:55.818Z,88.40
2018-08-07T14:06:23.215Z,86.60
2018-08-07T14:08:50.599Z,86.60
2018-08-07T14:11:17.985Z,85.30
2018-08-07T14:13:45.473Z,87.50
2018-08-07T14:16:12.861Z,87.10
2018-08-07T14:18:40.245Z,85.20
2018-08-07T14:21:07.675Z,85.60
2018-08-07T14:23:35.062Z,85.30
2018-08-07T14:26:02.445Z,84.50
2018-08-07T14:28:29.836Z,86.40
2018-08-07T14:30:57.217Z,85.70
2018-08-07T14:33:24.597Z,84.00
2018-08-07T14:35:51.994Z,83.00
2018-08-07T14:38:19.385Z,84.70
2018-08-07T14:40:46.765Z,82.30
2018-08-07T14:43:14.169Z,81.90
2018-08-07T14:45:41.561Z,83.60
2018-08-07T14:48:08.942Z,82.70
2018-08-07T14:50:36.341Z,81.90
2018-08-07T14:53:03.744Z,79.70
2018-08-07T14:55:31.121Z,79.60
2018-08-07T14:57:58.564Z,80.00
2018-08-07T15:00:29.362Z,78.80
2018-08-07T15:02:56.702Z,79.10
2018-08-07T15:05:24.089Z,80.10
2018-08-07T15:07:51.484Z,78.60
2018-08-07T15:10:20.696Z,78.60
2018-08-07T15:12:48.084Z,79.80
2018-08-07T15:15:16.625Z,77.20
2018-08-07T15:17:44.022Z,78.70
2018-08-07T15:20:12.722Z,77.40
2018-08-07T15:22:40.129Z,79.20
2018-08-07T15:25:08.249Z,79.40
2018-08-07T15:27:35.645Z,77.80
2018-08-07T15:30:03.088Z,79.20
2018-08-07T15:32:30.481Z,79.20
2018-08-07T15:34:57.875Z,78.70
2018-08-07T15:37:25.278Z,79.00
2018-08-07T15:39:52.664Z,79.50
2018-08-07T15:42:20.076Z,78.70
2018-08-07T15:44:47.469Z,79.00
2018-08-07T15:47:14.861Z,79.10
2018-08-07T15:49:42.244Z,81.10
2018-08-07T15:52:09.645Z,79.60
2018-08-07T15:54:37.057Z,79.80
2018-08-07T15:57:04.433Z,79.60
2018-08-07T15:59:31.826Z,80.40
2018-08-07T16:01:59.239Z,81.80
2018-08-07T16:04:26.625Z,81.10
2018-08-07T16:06:54.017Z,79.40
2018-08-07T16:09:21.522Z,82.10
2018-08-07T16:11:48.857Z,83.30
2018-08-07T16:14:16.248Z,82.00
2018-08-07T16:16:43.683Z,85.20
2018-08-07T16:19:11.051Z,83.00
2018-08-07T16:21:38.446Z,81.40
2018-08-07T16:24:05.825Z,83.80
2018-08-07T16:26:33.266Z,83.90
2018-08-07T16:29:00.661Z,72.60
2018-08-07T16:31:28.050Z,74.40
2018-08-07T16:33:55.557Z,73.80
2018-08-07T16:36:22.948Z,75.50
2018-08-07T16:38:50.345Z,74.10
2018-08-07T16:41:17.741Z,74.30
2018-08-07T16:43:45.146Z,74.70
2018-08-07T16:46:12.528Z,76.50
2018-08-07T16:48:39.920Z,74.10
2018-08-07T16:51:07.312Z,74.90
2018-08-07T16:53:34.713Z,78.10
2018-08-07T16:56:02.098Z,80.20
2018-08-07T16:58:29.502Z,82.50
2018-08-07T17:00:56.881Z,85.50
2018-08-07T17:03:24.286Z,86.30
2018-08-07T17:05:51.669Z,87.20
2018-08-07T17:08:19.050Z,89.60
2018-08-07T17:10:46.483Z,89.50
2018-08-07T17:13:13.821Z,90.10
2018-08-07T17:15:41.209Z,90.60
2018-08-07T17:18:08.615Z,90.50
2018-08-07T17:20:36.010Z,89.60
2018-08-07T17:23:03.401Z,90.10
2018-08-07T17:25:30.798Z,89.80
2018-08-07T17:27:58.199Z,90.20
2018-08-07T17:30:27.055Z,90.50
2018-08-07T17:32:54.561Z,90.60
2018-08-07T17:35:23.125Z,91.10
2018-08-07T17:37:51.235Z,91.10
2018-08-07T17:40:19.489Z,91.10
2018-08-07T17:42:46.881Z,91.50
2018-08-07T17:45:14.282Z,92.10
2018-08-07T17:47:41.684Z,92.40
2018-08-07T17:50:11.160Z,92.80
2018-08-07T17:52:38.601Z,92.40
2018-08-07T17:55:06.281Z,92.60
2018-08-07T17:57:33.694Z,92.90
2018-08-07T18:00:01.085Z,92.70
2018-08-07T18:02:28.483Z,92.70
2018-08-07T18:04:55.884Z,92.90
2018-08-07T18:07:23.298Z,92.60
2018-08-07T18:09:50.688Z,92.50
2018-08-07T18:12:18.245Z,92.60
2018-08-07T18:14:45.657Z,93.10
2018-08-07T18:17:13.080Z,93.20
2018-08-07T18:19:40.508Z,93.40
2018-08-07T18:22:09.038Z,93.40
2018-08-07T18:24:36.421Z,93.30
2018-08-07T18:27:03.876Z,93.80
2018-08-07T18:29:31.259Z,94.00
2018-08-07T18:31:58.673Z,94.90
2018-08-07T18:34:26.052Z,95.30
2018-08-07T18:36:53.454Z,95.70
2018-08-07T18:39:20.877Z,95.70
2018-08-07T18:41:48.284Z,96.20
2018-08-07T18:44:15.665Z,96.20
2018-08-07T18:46:43.073Z,96.80
2018-08-07T18:49:10.485Z,96.90
2018-08-07T18:51:37.874Z,96.90
2018-08-07T18:54:05.704Z,97.10
2018-08-07T18:56:33.100Z,97.30
2018-08-07T18:59:00.486Z,97.70
2018-08-07T19:01:27.885Z,97.50
2018-08-07T19:03:55.268Z,97.40
2018-08-07T19:06:22.677Z,97.50
2018-08-07T19:08:50.070Z,97.60
2018-08-07T19:11:17.470Z,97.60
2018-08-07T19:13:44.864Z,97.40
2018-08-07T19:16:12.269Z,97.30
2018-08-07T19:18:39.650Z,96.90
2018-08-07T19:21:07.045Z,97.10
2018-08-07T19:23:34.441Z,96.70
2018-08-07T19:26:01.842Z,97.10
2018-08-07T19:28:29.273Z,96.60
2018-08-07T19:30:56.661Z,96.80
2018-08-07T19:33:24.039Z,96.70
2018-08-07T19:35:51.433Z,97.10
2018-08-07T19:38:18.869Z,96.60
2018-08-07T19:40:46.267Z,96.40
2018-08-07T19:43:13.656Z,96.10
2018-08-07T19:45:41.046Z,96.70
2018-08-07T19:48:08.465Z,96.60
2018-08-07T19:50:35.898Z,96.30
2018-08-07T19:53:03.354Z,97.60
2018-08-07T19:55:31.411Z,97.30
2018-08-07T19:57:59.465Z,97.50
2018-08-07T20:00:27.937Z,96.90
2018-08-07T20:02:55.717Z,97.30
2018-08-07T20:05:23.343Z,96.90
2018-08-07T20:07:51.181Z,97.50
2018-08-07T20:10:19.235Z,97.60
2018-08-07T20:12:46.686Z,97.70
2018-08-07T20:15:18.468Z,97.50
2018-08-07T20:17:46.005Z,97.20
2018-08-07T20:20:13.416Z,97.50
2018-08-07T20:22:40.907Z,97.10
2018-08-07T20:25:09.777Z,97.20
2018-08-07T20:27:37.376Z,97.40
2018-08-07T20:30:08.770Z,98.60
2018-08-07T20:32:36.218Z,98.30
2018-08-07T20:35:04.341Z,98.40
2018-08-07T20:37:31.810Z,98.90
2018-08-07T20:39:59.211Z,98.70
2018-08-07T20:42:26.606Z,98.70
2018-08-07T20:44:53.997Z,98.70
2018-08-07T20:47:21.422Z,98.70
2018-08-07T20:49:48.818Z,99.00
2018-08-07T20:52:16.312Z,98.90
2018-08-07T20:54:43.649Z,99.30
2018-08-07T20:57:11.081Z,99.50
2018-08-07T20:59:38.518Z,99.50
2018-08-07T21:02:05.921Z,99.50
2018-08-07T21:04:33.333Z,99.70
2018-08-07T21:07:00.746Z,99.90
2018-08-07T21:09:28.165Z,99.90
2018-08-07T21:11:55.575Z,99.90
2018-08-07T21:14:22.962Z,99.90
2018-08-07T21:16:51.034Z,99.90
2018-08-07T21:19:18.488Z,99.90
2018-08-07T21:21:45.883Z,99.90
2018-08-07T21:24:13.320Z,99.90
2018-08-07T21:26:40.700Z,99.90
2018-08-07T21:29:08.109Z,99.90
2018-08-07T21:31:35.547Z,99.90
2018-08-07T21:34:02.968Z,99.90
2018-08-07T21:36:30.358Z,99.90
2018-08-07T21:38:57.773Z,99.90
2018-08-07T21:41:25.217Z,99.90
2018-08-07T21:43:52.611Z,99.90
2018-08-07T21:46:20.696Z,99.90
2018-08-07T21:48:48.168Z,99.90
2018-08-07T21:51:16.220Z,99.90
2018-08-07T21:53:44.275Z,99.90
2018-08-07T21:56:12.333Z,99.90
2018-08-07T21:58:40.621Z,99.90
2018-08-07T22:01:09.845Z,99.90
2018-08-07T22:03:38.153Z,99.90
2018-08-07T22:06:05.846Z,99.90
2018-08-07T22:08:33.285Z,99.90
2018-08-07T22:12:10.423Z,99.90
2018-08-07T22:14:37.858Z,99.90
2018-08-07T22:17:05.309Z,99.90
2018-08-07T22:19:32.785Z,99.90
2018-08-07T22:22:00.225Z,99.90
2018-08-07T22:24:28.221Z,99.90
2018-08-07T22:26:55.734Z,99.90
2018-08-07T22:29:23.866Z,99.90
2018-08-07T22:31:51.965Z,99.90
2018-08-07T22:34:20.031Z,99.90
2018-08-07T22:36:48.061Z,99.90
2018-08-07T22:39:16.103Z,99.90
2018-08-07T22:41:44.194Z,99.90
2018-08-07T22:44:12.326Z,99.90
2018-08-07T22:46:40.391Z,99.90
2018-08-07T22:49:08.506Z,99.90
2018-08-07T22:51:36.614Z,99.90
2018-08-07T22:54:04.668Z,99.90
2018-08-07T22:56:32.734Z,99.90
2018-08-07T22:59:00.797Z,99.90
2018-08-07T23:01:28.181Z,99.90
2018-08-07T23:03:55.564Z,99.90
2018-08-07T23:06:22.982Z,99.90
2018-08-07T23:08:50.383Z,99.90
2018-08-07T23:11:17.838Z,99.90
2018-08-07T23:13:45.228Z,99.90
2018-08-07T23:16:12.638Z,99.90
2018-08-07T23:18:40.017Z,99.90
2018-08-07T23:21:07.436Z,99.90
2018-08-07T23:23:34.818Z,99.90
2018-08-07T23:26:02.275Z,99.90
2018-08-07T23:28:29.665Z,99.90
2018-08-07T23:30:57.065Z,99.90
2018-08-07T23:33:25.118Z,99.90
2018-08-07T23:35:53.178Z,99.90
2018-08-07T23:38:21.263Z,99.90
2018-08-07T23:40:49.350Z,99.90
2018-08-07T23:43:16.766Z,99.90
2018-08-07T23:45:44.172Z,99.90
2018-08-07T23:48:11.598Z,99.90
2018-08-07T23:50:39.017Z,99.90
2018-08-07T23:53:07.123Z,99.90
2018-08-07T23:55:35.182Z,99.90
2018-08-07T23:58:03.297Z,99.90
